Time;durP1;ratioP1;P1;durP2;ratioP2;P2;SDS_P1;SDS_P2;PMS_P1;PMS_P2;Temp;Humidity;BMP_temperature;BMP_pressure;BME280_temperature;BME280_humidity;BME280_pressure;Samples;Min_cycle;Max_cycle;Signal;HPM_P1;HPM_P2
2022/04/25 00:01:39;;;;;;;11.38;4.90;;;;;;;7.03;98.56;101091.69;5051185;28;20074;-72
2022/04/25 00:04:05;;;;;;;8.25;4.43;;;;;;;7.05;98.24;101105.66;5051172;28;20108;-72
2022/04/25 00:06:31;;;;;;;8.65;4.18;;;;;;;7.09;98.28;101102.03;5050888;28;20062;-73
2022/04/25 00:08:58;;;;;;;7.78;4.57;;;;;;;7.12;99.10;101099.31;5048975;28;20035;-73
2022/04/25 00:11:23;;;;;;;10.32;4.38;;;;;;;7.18;97.84;101101.78;5050188;28;20048;-72
2022/04/25 00:13:49;;;;;;;9.23;4.63;;;;;;;7.27;98.97;101100.69;5048812;28;20024;-75
2022/04/25 00:16:14;;;;;;;12.13;5.07;;;;;;;7.32;98.97;101104.03;5050492;28;20171;-72
2022/04/25 00:18:40;;;;;;;9.18;4.65;;;;;;;7.37;98.30;101108.31;5050760;28;20075;-72
2022/04/25 00:21:05;;;;;;;11.48;4.47;;;;;;;7.41;99.09;101105.53;5049027;28;20612;-72
2022/04/25 00:23:31;;;;;;;9.07;4.45;;;;;;;7.42;98.39;101114.31;5048988;28;20750;-72
2022/04/25 00:25:56;;;;;;;10.20;4.47;;;;;;;7.45;98.59;101125.63;5050615;28;20044;-73
2022/04/25 00:28:22;;;;;;;10.30;4.95;;;;;;;7.43;97.73;101119.56;5044533;28;20029;-72
2022/04/25 00:30:48;;;;;;;8.30;4.55;;;;;;;7.44;97.40;101118.66;5049436;28;20041;-72
2022/04/25 00:33:14;;;;;;;9.65;3.92;;;;;;;7.50;98.01;101122.00;5050825;28;20033;-74
2022/04/25 00:35:40;;;;;;;7.95;4.20;;;;;;;7.50;97.76;101127.25;5050244;28;20063;-72
2022/04/25 00:38:05;;;;;;;12.13;4.20;;;;;;;7.53;98.40;101117.53;5050619;28;20476;-73
2022/04/25 00:40:31;;;;;;;10.40;4.38;;;;;;;7.52;97.50;101122.84;5048469;28;20031;-71
2022/04/25 00:42:57;;;;;;;10.38;4.22;;;;;;;7.52;98.19;101120.19;5066051;28;20152;-72
2022/04/25 00:45:22;;;;;;;7.68;3.58;;;;;;;7.53;97.51;101127.19;5050120;28;20483;-71
2022/04/25 00:47:48;;;;;;;8.50;3.92;;;;;;;7.51;96.86;101124.59;5026953;28;20086;-73
2022/04/25 00:50:14;;;;;;;7.65;4.32;;;;;;;7.51;97.29;101124.59;5050417;28;20773;-72
2022/04/25 00:52:40;;;;;;;9.02;4.45;;;;;;;7.49;96.88;101126.41;5048095;28;20809;-72
2022/04/25 00:55:08;;;;;;;5.32;3.53;;;;;;;7.47;97.12;101118.56;5050041;28;20038;-72
2022/04/25 00:57:33;;;;;;;10.65;3.90;;;;;;;7.47;96.82;101130.88;5050511;28;20029;-72
2022/04/25 01:00:00;;;;;;;6.20;3.60;;;;;;;7.43;97.34;101118.69;5032609;28;20145;-73
2022/04/25 01:02:26;;;;;;;6.57;3.58;;;;;;;7.38;96.60;101129.34;5048715;28;20036;-71
2022/04/25 01:04:53;;;;;;;6.95;3.22;;;;;;;7.31;96.34;101122.53;5069619;28;20138;-71
2022/04/25 01:07:19;;;;;;;6.72;3.33;;;;;;;7.28;96.84;101130.50;5052872;28;20544;-70
2022/04/25 01:09:45;;;;;;;8.35;3.50;;;;;;;7.25;96.39;101120.06;5053514;28;20032;-70
2022/04/25 01:12:10;;;;;;;9.93;4.13;;;;;;;7.18;96.85;101125.50;5054465;28;20062;-71
2022/04/25 01:14:36;;;;;;;8.82;3.85;;;;;;;7.18;97.13;101127.25;5054171;28;20502;-71
2022/04/25 01:17:02;;;;;;;7.97;4.20;;;;;;;7.14;97.61;101126.47;5054147;28;20418;-71
2022/04/25 01:19:28;;;;;;;9.75;4.20;;;;;;;7.15;97.48;101116.81;5054238;28;21368;-71
2022/04/25 01:21:56;;;;;;;6.57;3.40;;;;;;;7.15;96.84;101119.44;5052783;28;20048;-70
2022/04/25 01:27:17;;;;;;;7.85;4.40;;;;;;;7.20;97.71;101128.94;5052974;28;20155;-71
2022/04/25 01:29:49;;;;;;;8.20;5.25;;;;;;;7.19;97.07;101114.03;5037246;28;20021;-71
2022/04/25 01:32:16;;;;;;;11.57;5.32;;;;;;;7.20;96.97;101114.91;5052693;28;20129;-71
2022/04/25 01:34:42;;;;;;;8.40;5.05;;;;;;;7.21;96.78;101111.38;5052535;28;20040;-70
2022/04/25 01:37:09;;;;;;;9.80;4.65;;;;;;;7.21;96.72;101116.66;5017545;28;20036;-71
2022/04/25 01:39:35;;;;;;;9.18;4.30;;;;;;;7.21;96.78;101119.28;5052675;28;20039;-71
2022/04/25 01:42:02;;;;;;;10.98;5.47;;;;;;;7.24;96.93;101113.91;5069153;28;20488;-71
2022/04/25 01:44:27;;;;;;;7.97;4.10;;;;;;;7.25;96.59;101109.53;5053970;28;20875;-70
2022/04/25 01:46:53;;;;;;;9.98;5.30;;;;;;;7.24;96.18;101110.44;5053622;28;20046;-71
2022/04/25 01:49:18;;;;;;;9.63;4.85;;;;;;;7.23;96.46;101109.56;5053243;28;20036;-70
2022/04/25 01:51:44;;;;;;;10.25;4.60;;;;;;;7.23;96.63;101108.72;5053533;28;20752;-70
2022/04/25 01:54:09;;;;;;;9.38;4.63;;;;;;;7.21;96.55;101111.38;5053248;28;20043;-71
2022/04/25 01:56:35;;;;;;;11.77;5.18;;;;;;;7.17;96.00;101107.97;5051708;28;20048;-70
2022/04/25 01:59:00;;;;;;;9.25;4.72;;;;;;;7.15;95.59;101106.28;5053278;28;20038;-71
2022/04/25 02:01:26;;;;;;;10.93;5.30;;;;;;;7.15;95.78;101116.81;5052225;28;20055;-71
2022/04/25 02:03:52;;;;;;;10.32;4.97;;;;;;;7.12;95.73;101112.47;5051881;28;20028;-71
2022/04/25 02:06:17;;;;;;;10.73;4.70;;;;;;;7.09;96.13;101107.31;5051479;28;20471;-70
2022/04/25 02:08:43;;;;;;;9.15;4.20;;;;;;;7.05;95.66;101106.53;5053076;28;20036;-71
2022/04/25 02:11:21;;;;;;;7.75;4.10;;;;;;;7.03;96.39;101113.59;5053312;28;20048;-71
2022/04/25 02:13:54;;;;;;;7.63;3.78;;;;;;;6.99;96.45;101096.16;5051840;28;20610;-71
2022/04/25 02:16:21;;;;;;;9.70;4.30;;;;;;;6.97;97.03;101099.72;5051540;28;20039;-71
2022/04/25 02:18:46;;;;;;;8.38;4.45;;;;;;;6.95;96.87;101101.53;5050977;28;20305;-71
2022/04/25 02:21:12;;;;;;;8.27;3.78;;;;;;;6.93;97.09;101107.69;5052983;28;20028;-72
2022/04/25 02:23:38;;;;;;;9.48;4.53;;;;;;;6.91;96.54;101101.63;5051464;28;20411;-72
2022/04/25 02:26:07;;;;;;;6.88;4.30;;;;;;;6.92;96.72;101105.13;5051320;28;20590;-71
2022/04/25 02:28:36;;;;;;;7.50;3.80;;;;;;;6.89;96.60;101098.16;5052489;28;20043;-70
2022/04/25 02:31:04;;;;;;;6.07;4.00;;;;;;;6.87;96.75;101097.31;5025496;28;20264;-71
2022/04/25 02:33:31;;;;;;;7.57;4.00;;;;;;;6.85;96.82;101099.13;5049933;28;20036;-70
2022/04/25 02:35:56;;;;;;;6.10;3.67;;;;;;;6.81;96.54;101089.56;5051752;28;20040;-70
2022/04/25 02:38:22;;;;;;;9.85;4.43;;;;;;;6.78;96.52;101095.81;5051228;28;20049;-71
2022/04/25 02:41:04;;;;;;;9.70;4.55;;;;;;;6.77;96.57;101101.94;5051508;28;20279;-70
2022/04/25 02:43:40;;;;;;;8.57;4.32;;;;;;;6.74;96.37;101095.91;5052651;28;20250;-71
2022/04/25 02:46:07;;;;;;;9.38;4.75;;;;;;;6.72;95.85;101105.63;5050873;28;20028;-71
2022/04/25 02:48:34;;;;;;;6.47;4.15;;;;;;;6.71;96.32;101101.25;5051641;28;20473;-72
2022/04/25 02:51:00;;;;;;;7.85;3.75;;;;;;;6.69;97.16;101097.81;5052427;28;20036;-71
2022/04/25 02:53:26;;;;;;;8.95;4.05;;;;;;;6.67;96.89;101095.22;5035659;28;20097;-72
2022/04/25 02:55:53;;;;;;;7.78;4.20;;;;;;;6.64;96.45;101098.78;5033062;28;20036;-71
2022/04/25 02:58:22;;;;;;;10.85;4.80;;;;;;;6.62;96.65;101092.69;5050903;28;20036;-71
2022/04/25 03:00:49;;;;;;;13.27;4.47;;;;;;;6.56;96.45;101099.88;5052266;28;20028;-71
2022/04/25 03:03:16;;;;;;;9.98;4.40;;;;;;;6.50;96.46;101095.63;5050688;28;20101;-72
2022/04/25 03:05:43;;;;;;;6.63;4.22;;;;;;;6.46;96.50;101096.59;5050348;28;20028;-71
2022/04/25 03:08:19;;;;;;;7.80;4.13;;;;;;;6.41;96.99;101093.19;5051805;28;20683;-71
2022/04/25 03:10:46;;;;;;;7.25;4.10;;;;;;;6.38;96.98;101088.91;5050119;28;20060;-71
2022/04/25 03:13:13;;;;;;;8.88;4.35;;;;;;;6.35;96.98;101081.94;5051997;28;20029;-71
2022/04/25 03:15:39;;;;;;;7.55;4.05;;;;;;;6.32;97.22;101087.25;5046891;28;20039;-72
2022/04/25 03:18:12;;;;;;;9.82;4.60;;;;;;;6.31;97.16;101079.44;5051830;28;20376;-71
2022/04/25 03:20:38;;;;;;;9.93;4.40;;;;;;;6.30;97.35;101081.19;5051812;28;20037;-72
2022/04/25 03:23:05;;;;;;;7.68;4.25;;;;;;;6.26;97.19;101079.53;5051578;28;20025;-72
2022/04/25 03:25:31;;;;;;;8.45;4.18;;;;;;;6.20;97.16;101072.66;5050915;28;20471;-71
2022/04/25 03:27:57;;;;;;;7.88;4.07;;;;;;;6.18;96.88;101082.34;5050516;28;20104;-71
2022/04/25 03:30:23;;;;;;;7.88;4.00;;;;;;;6.16;97.67;101080.66;5049840;28;20033;-72
2022/04/25 03:32:49;;;;;;;9.57;4.45;;;;;;;6.14;97.88;101085.09;5051494;28;20028;-71
2022/04/25 03:35:17;;;;;;;8.15;3.88;;;;;;;6.09;97.78;101083.41;5051335;28;20040;-72
2022/04/25 03:37:43;;;;;;;9.80;4.53;;;;;;;6.08;96.96;101101.84;5050940;28;20047;-71
2022/04/25 03:40:10;;;;;;;8.15;4.35;;;;;;;6.05;97.46;101101.94;5051526;28;20051;-71
2022/04/25 03:42:40;;;;;;;8.88;4.07;;;;;;;6.05;98.10;101097.50;5051132;28;20449;-71
2022/04/25 03:45:09;;;;;;;7.80;4.10;;;;;;;6.06;98.27;101104.50;5050288;28;20055;-71
2022/04/25 03:47:35;;;;;;;5.75;3.80;;;;;;;6.06;98.64;101101.88;5049296;28;20046;-71
2022/04/25 03:50:00;;;;;;;7.75;4.13;;;;;;;6.05;98.07;101094.88;5028224;28;20109;-71
2022/04/25 03:52:26;;;;;;;7.07;4.82;;;;;;;6.05;97.87;101101.94;5051420;28;20042;-71
2022/04/25 03:57:35;;;;;;;6.63;4.00;;;;;;;5.93;97.92;101103.00;5049989;28;20037;-71
2022/04/25 04:00:01;;;;;;;8.10;4.40;;;;;;;5.87;98.07;101106.66;5048659;28;20033;-71
2022/04/25 04:02:26;;;;;;;8.02;4.03;;;;;;;5.82;98.35;101112.00;5049551;28;20037;-71
2022/04/25 04:04:52;;;;;;;8.43;4.85;;;;;;;5.78;98.79;101110.31;5051007;28;20029;-71
2022/04/25 04:07:17;;;;;;;6.88;3.90;;;;;;;5.73;97.81;101106.06;5051141;28;20040;-71
2022/04/25 04:09:46;;;;;;;8.27;4.88;;;;;;;5.72;98.65;101113.09;5066227;28;20431;-71
2022/04/25 04:12:12;;;;;;;8.77;4.70;;;;;;;5.71;99.24;101121.88;5028047;28;20162;-71
2022/04/25 04:14:39;;;;;;;8.82;4.60;;;;;;;5.68;98.86;101119.31;5048879;28;20145;-71
2022/04/25 04:17:07;;;;;;;7.43;4.65;;;;;;;5.66;98.76;101121.13;5048222;28;20146;-71
2022/04/25 04:19:37;;;;;;;8.13;4.55;;;;;;;5.71;99.40;101127.13;5050904;28;20117;-72
2022/04/25 04:22:04;;;;;;;10.43;4.63;;;;;;;5.79;100.00;101119.97;5050935;28;20556;-71
2022/04/25 04:24:31;;;;;;;8.75;5.22;;;;;;;5.92;100.00;101114.44;5061391;28;20063;-72
2022/04/25 04:27:04;;;;;;;9.20;4.65;;;;;;;6.02;100.00;101118.63;5032910;28;20033;-73
2022/04/25 04:29:33;;;;;;;;;;;;;;;6.15;100.00;101115.72;5050073;28;20583;-71
2022/04/25 04:32:06;;;;;;;6.88;4.45;;;;;;;6.28;100.00;101129.44;5049527;28;20368;-72
2022/04/25 04:34:32;;;;;;;8.40;4.50;;;;;;;6.35;100.00;101124.03;5048909;28;20047;-72
2022/04/25 04:36:59;;;;;;;8.50;5.18;;;;;;;6.42;99.85;101129.16;5048671;28;20044;-73
2022/04/25 04:39:24;;;;;;;9.27;5.03;;;;;;;6.49;99.16;101133.34;5050258;28;21245;-71
2022/04/25 04:41:50;;;;;;;9.05;4.90;;;;;;;6.52;98.74;101131.53;5050528;28;20060;-71
2022/04/25 04:44:15;;;;;;;10.80;4.90;;;;;;;6.55;98.16;101141.09;5050725;28;20032;-72
2022/04/25 04:46:41;;;;;;;7.40;5.18;;;;;;;6.61;98.55;101150.63;5061401;28;20256;-71
2022/04/25 04:49:06;;;;;;;5.93;4.07;;;;;;;6.65;97.92;101139.97;5048537;28;20475;-73
2022/04/25 04:51:32;;;;;;;10.10;4.68;;;;;;;6.68;97.96;101140.78;5048972;28;20141;-71
2022/04/25 04:53:59;;;;;;;7.80;5.10;;;;;;;6.72;97.27;101142.47;5049358;28;20029;-72
2022/04/25 04:56:32;;;;;;;8.23;4.90;;;;;;;6.77;98.02;101146.69;5032057;28;20036;-72
2022/04/25 04:58:58;;;;;;;7.97;4.78;;;;;;;6.81;98.16;101144.84;5049753;28;20059;-73
2022/04/25 05:01:24;;;;;;;10.57;4.82;;;;;;;6.83;97.97;101143.06;5050176;28;20032;-71
2022/04/25 05:03:50;;;;;;;10.50;4.90;;;;;;;6.85;97.50;101154.41;5050463;28;20040;-71
2022/04/25 05:06:15;;;;;;;7.43;4.38;;;;;;;6.86;96.70;101152.66;5049948;28;20150;-72
2022/04/25 05:08:41;;;;;;;9.30;4.90;;;;;;;6.87;97.15;101154.38;5044738;28;20744;-71
2022/04/25 05:11:09;;;;;;;7.78;4.38;;;;;;;6.87;97.11;101160.50;5049866;28;20130;-71
2022/04/25 05:13:36;;;;;;;7.72;4.22;;;;;;;6.89;97.24;101158.72;5050212;28;20036;-71
2022/04/25 05:16:03;;;;;;;8.43;4.50;;;;;;;6.91;97.14;101163.91;5049386;28;20036;-71
2022/04/25 05:18:32;;;;;;;8.85;4.68;;;;;;;6.92;97.25;101158.63;5048938;28;20037;-71
2022/04/25 05:21:01;;;;;;;10.75;4.35;;;;;;;6.92;96.93;101163.88;5050068;28;20039;-71
2022/04/25 05:23:27;;;;;;;10.65;4.72;;;;;;;6.91;96.66;101172.69;5065662;28;20076;-71
2022/04/25 05:25:54;;;;;;;8.70;4.43;;;;;;;6.90;96.52;101170.09;5050200;28;20032;-71
2022/04/25 05:28:20;;;;;;;6.95;4.43;;;;;;;6.88;96.00;101178.03;5048882;28;20037;-71
2022/04/25 05:30:46;;;;;;;9.38;5.00;;;;;;;6.89;96.33;101173.63;5050249;28;20452;-71
2022/04/25 05:33:12;;;;;;;6.63;4.28;;;;;;;6.90;96.82;101178.84;5043879;28;20403;-73
2022/04/25 05:35:38;;;;;;;6.80;4.20;;;;;;;6.88;95.66;101178.03;5047212;28;20082;-72
2022/04/25 05:38:06;;;;;;;8.93;4.60;;;;;;;6.85;95.65;101186.00;5031496;28;20048;-71
2022/04/25 05:40:32;;;;;;;8.30;4.45;;;;;;;6.84;95.90;101181.63;5049649;28;20028;-72
2022/04/25 05:42:58;;;;;;;8.45;4.43;;;;;;;6.82;95.86;101180.81;5049856;28;20029;-72
2022/04/25 05:45:25;;;;;;;8.38;4.45;;;;;;;6.82;95.76;101185.19;5050231;28;20047;-72
2022/04/25 05:47:54;;;;;;;9.88;4.82;;;;;;;6.86;96.05;101189.50;5048759;28;20031;-72
2022/04/25 05:53:04;;;;;;;9.57;4.93;;;;;;;6.91;95.92;101209.53;5037793;28;20083;-73
2022/04/25 05:55:30;;;;;;;7.13;5.25;;;;;;;6.91;95.54;101204.28;5053404;28;21554;-72
2022/04/25 05:57:56;;;;;;;6.55;4.57;;;;;;;6.92;95.70;101206.00;5053268;28;20109;-73
2022/04/25 06:00:24;;;;;;;8.45;5.15;;;;;;;6.95;95.86;101207.69;5052310;28;20036;-73
2022/04/25 06:02:49;;;;;;;9.07;5.10;;;;;;;6.97;96.25;101211.16;5064309;28;20024;-73
2022/04/25 06:05:15;;;;;;;8.50;4.40;;;;;;;6.96;95.88;101201.53;5052098;28;20035;-73
2022/04/25 06:07:45;;;;;;;9.10;4.88;;;;;;;6.92;95.09;101211.25;5030184;28;20024;-73
2022/04/25 06:10:13;;;;;;;6.13;4.40;;;;;;;6.91;95.05;101212.16;5064343;28;20068;-74
2022/04/25 06:12:47;;;;;;;9.93;5.13;;;;;;;6.92;95.73;101216.53;5052160;28;20067;-74
2022/04/25 06:15:13;;;;;;;9.45;4.57;;;;;;;6.96;95.16;101221.72;5052473;28;20119;-72
2022/04/25 06:17:39;;;;;;;9.25;5.10;;;;;;;6.96;95.26;101216.47;5053159;28;20040;-73
2022/04/25 06:20:06;;;;;;;11.40;5.55;;;;;;;6.96;95.13;101217.31;5063554;28;20090;-74
2022/04/25 06:22:32;;;;;;;9.23;5.18;;;;;;;6.96;94.81;101216.47;5034301;28;20169;-74
2022/04/25 06:24:57;;;;;;;13.70;5.32;;;;;;;6.96;95.11;101217.31;5052994;28;20575;-73
2022/04/25 06:27:23;;;;;;;8.52;4.75;;;;;;;6.99;95.60;101226.91;5053445;28;20036;-73
2022/04/25 06:29:48;;;;;;;10.05;5.15;;;;;;;7.02;94.92;101229.44;5036373;28;20443;-75
2022/04/25 06:32:14;;;;;;;9.00;5.00;;;;;;;7.01;94.25;101225.09;5053438;28;20954;-73
2022/04/25 06:34:40;;;;;;;7.72;4.88;;;;;;;7.03;95.05;101224.16;5067991;28;20559;-74
2022/04/25 06:37:07;;;;;;;8.82;5.25;;;;;;;7.08;95.16;101231.94;5034888;28;20542;-73
2022/04/25 06:39:33;;;;;;;6.82;4.18;;;;;;;7.10;94.35;101235.41;5063143;28;20064;-73
2022/04/25 06:41:59;;;;;;;8.80;4.13;;;;;;;7.10;94.00;101230.16;5030455;28;20032;-74
2022/04/25 06:44:25;;;;;;;8.50;4.45;;;;;;;7.10;94.92;101232.78;5051190;28;20025;-73
2022/04/25 06:46:50;;;;;;;10.13;4.35;;;;;;;7.14;94.99;101231.78;5051604;28;20039;-74
2022/04/25 06:49:25;;;;;;;6.85;4.45;;;;;;;7.14;94.42;101233.56;5050902;28;20044;-74
2022/04/25 06:51:52;;;;;;;10.35;4.45;;;;;;;7.11;94.05;101237.16;5035572;28;20028;-73
2022/04/25 06:54:18;;;;;;;9.27;4.65;;;;;;;7.09;93.84;101238.09;5052581;28;20688;-73
2022/04/25 06:56:44;;;;;;;6.72;4.30;;;;;;;7.05;93.32;101239.94;5052880;28;20029;-72
2022/04/25 06:59:10;;;;;;;8.32;4.30;;;;;;;7.06;93.43;101241.66;5051324;28;20433;-71
2022/04/25 07:01:36;;;;;;;8.70;4.78;;;;;;;7.09;93.31;101246.88;5051912;28;20032;-72
2022/04/25 07:04:02;;;;;;;10.18;4.78;;;;;;;7.13;93.29;101252.91;5052340;28;21433;-71
2022/04/25 07:06:28;;;;;;;7.22;4.05;;;;;;;7.20;93.83;101250.06;5052073;28;20067;-71
2022/04/25 07:08:54;;;;;;;9.50;4.30;;;;;;;7.29;93.91;101250.75;5052406;28;20032;-71
2022/04/25 07:11:19;;;;;;;9.13;4.93;;;;;;;7.34;93.52;101256.75;5052420;28;20040;-72
2022/04/25 07:13:45;;;;;;;9.20;3.92;;;;;;;7.34;93.05;101265.53;5052435;28;20028;-71
2022/04/25 07:16:14;;;;;;;8.75;4.50;;;;;;;7.38;93.79;101260.19;5051529;28;20446;-72
2022/04/25 07:18:40;;;;;;;5.38;3.92;;;;;;;7.36;92.94;101257.63;5051145;28;20485;-72
2022/04/25 07:29:18;;;;;;;8.55;4.13;;;;;;;7.46;92.77;101248.56;5051826;28;20032;-72
2022/04/25 07:31:44;;;;;;;7.57;4.05;;;;;;;7.55;92.51;101249.22;5050320;28;20395;-72
2022/04/25 07:34:09;;;;;;;8.52;4.05;;;;;;;7.56;92.65;101250.94;5061751;28;20040;-73
2022/04/25 07:36:36;;;;;;;8.85;4.80;;;;;;;7.56;92.48;101256.22;5049994;28;20131;-72
2022/04/25 07:39:05;;;;;;;7.10;4.25;;;;;;;7.59;92.49;101259.63;5049753;28;20383;-72
2022/04/25 07:41:30;;;;;;;8.40;4.40;;;;;;;7.71;92.35;101263.72;5051201;28;20032;-72
2022/04/25 07:43:57;;;;;;;8.40;4.32;;;;;;;7.80;91.51;101267.88;5049689;28;20527;-72
2022/04/25 07:46:25;;;;;;;7.50;3.70;;;;;;;7.86;92.05;101266.84;5051090;28;20093;-73
2022/04/25 07:48:54;;;;;;;5.70;3.58;;;;;;;7.91;91.86;101272.88;5049783;28;20040;-72
2022/04/25 07:51:19;;;;;;;5.03;3.70;;;;;;;7.96;91.20;101273.59;5051558;28;20177;-71
2022/04/25 07:53:45;;;;;;;6.30;3.63;;;;;;;8.04;91.65;101283.94;5051574;28;20458;-70
2022/04/25 07:56:10;;;;;;;5.75;3.55;;;;;;;8.07;90.74;101275.91;5049629;28;20032;-70
2022/04/25 07:58:37;;;;;;;5.65;3.47;;;;;;;8.08;90.82;101282.94;5049302;28;20135;-71
2022/04/25 08:01:03;;;;;;;5.22;3.67;;;;;;;8.10;90.41;101280.25;5049993;28;20031;-73
2022/04/25 08:03:29;;;;;;;8.20;4.00;;;;;;;8.10;89.66;101280.25;5049665;28;20159;-73
2022/04/25 08:05:54;;;;;;;6.28;3.78;;;;;;;8.06;89.67;101278.63;5049308;28;20436;-73
2022/04/25 08:08:20;;;;;;;4.72;3.30;;;;;;;8.09;89.28;101279.41;5066288;28;20024;-72
2022/04/25 08:10:46;;;;;;;6.78;3.40;;;;;;;8.11;89.59;101282.84;5044931;28;20041;-73
2022/04/25 08:18:40;;;;;;;6.95;3.83;;;;;;;8.07;89.31;101297.03;5049568;28;20055;-72
2022/04/25 08:21:05;;;;;;;7.40;3.60;;;;;;;8.05;89.23;101296.22;5050868;28;20558;-73
2022/04/25 08:23:31;;;;;;;5.53;3.45;;;;;;;8.09;89.18;101311.06;5049957;28;20590;-73
2022/04/25 08:25:56;;;;;;;6.65;3.83;;;;;;;8.12;89.08;101300.41;5048188;28;20035;-72
2022/04/25 08:28:23;;;;;;;6.82;3.58;;;;;;;8.14;89.26;101303.00;5047597;28;20064;-70
2022/04/25 08:30:48;;;;;;;5.57;3.53;;;;;;;8.15;88.93;101307.38;5041361;28;20028;-70
2022/04/25 08:33:14;;;;;;;5.28;3.15;;;;;;;8.14;89.56;101301.25;5036470;28;20097;-71
2022/04/25 08:35:39;;;;;;;7.22;3.88;;;;;;;8.16;89.04;101298.53;5040681;28;20155;-71
2022/04/25 08:38:05;;;;;;;8.07;3.85;;;;;;;8.21;89.53;101301.03;5047457;28;20037;-71
2022/04/25 08:40:32;;;;;;;7.57;3.45;;;;;;;8.22;89.51;101298.38;5059488;28;20028;-72
2022/04/25 08:42:58;;;;;;;6.45;3.42;;;;;;;8.24;89.55;101301.81;5048981;28;20040;-71
2022/04/25 08:45:24;;;;;;;6.13;3.75;;;;;;;8.28;89.34;101311.38;5047075;28;20894;-74
2022/04/25 08:47:58;;;;;;;5.75;3.88;;;;;;;8.31;89.57;101315.72;5027848;28;20120;-73
2022/04/25 08:50:24;;;;;;;8.52;3.70;;;;;;;8.38;89.33;101309.34;5042816;28;20040;-71
2022/04/25 08:52:51;;;;;;;5.68;3.50;;;;;;;8.42;89.47;101312.78;5048093;28;20035;-71
2022/04/25 08:55:17;;;;;;;12.23;4.28;;;;;;;8.48;89.40;101317.00;5049698;28;20040;-72
2022/04/25 08:57:44;;;;;;;7.00;3.83;;;;;;;8.51;89.38;101307.25;5060296;28;20064;-72
2022/04/25 09:00:13;;;;;;;5.90;3.88;;;;;;;8.63;89.02;101315.72;5048138;28;20074;-71
2022/04/25 09:02:39;;;;;;;6.90;3.65;;;;;;;8.88;89.26;101320.28;5042048;28;20036;-72
2022/04/25 09:05:12;;;;;;;9.05;4.18;;;;;;;9.02;88.10;101331.28;5024791;28;20048;-71
2022/04/25 09:07:38;;;;;;;;;;;;;;;9.08;87.53;101331.09;5043441;28;20808;-71
2022/04/25 09:10:08;;;;;;;4.95;3.33;;;;;;;9.12;85.96;101338.91;5045733;28;19931;-71
2022/04/25 09:12:36;;;;;;;4.82;2.80;;;;;;;9.07;87.02;101342.56;5047657;28;20044;-74
2022/04/25 09:15:02;;;;;;;4.68;2.83;;;;;;;9.10;86.43;101349.53;5048005;28;20153;-71
2022/04/25 09:17:28;;;;;;;4.75;3.40;;;;;;;9.17;86.65;101343.13;5047009;28;20418;-71
2022/04/25 09:19:53;;;;;;;4.28;3.03;;;;;;;9.20;85.23;101345.66;5046326;28;20035;-71
2022/04/25 09:22:30;;;;;;;5.85;3.25;;;;;;;9.25;85.54;101350.81;5047919;28;20028;-71
2022/04/25 09:25:04;;;;;;;4.85;2.60;;;;;;;9.31;84.33;101345.31;5050346;28;20032;-71
2022/04/25 09:27:30;;;;;;;7.95;3.20;;;;;;;9.26;84.16;101351.69;5049629;28;20028;-71
2022/04/25 09:29:55;;;;;;;4.55;3.17;;;;;;;9.19;82.98;101357.16;5048830;28;20033;-72
2022/04/25 09:32:31;;;;;;;4.57;2.78;;;;;;;9.21;83.58;101351.84;5047912;28;20450;-72
2022/04/25 09:35:05;;;;;;;5.20;2.70;;;;;;;9.22;83.58;101357.03;5050116;28;20056;-72
2022/04/25 09:37:45;;;;;;;4.38;2.45;;;;;;;9.22;83.42;101354.41;5048267;28;20037;-72
2022/04/25 09:40:11;;;;;;;4.65;2.70;;;;;;;9.23;83.73;101357.94;5052771;28;20068;-71
2022/04/25 09:42:37;;;;;;;6.70;2.83;;;;;;;9.19;84.04;101345.72;5048142;28;20052;-74
2022/04/25 09:45:04;;;;;;;6.10;2.90;;;;;;;9.26;83.74;101351.69;5049202;28;20562;-71
2022/04/25 09:47:32;;;;;;;5.90;2.88;;;;;;;9.29;83.67;101357.72;5049603;28;20499;-72
2022/04/25 09:50:27;;;;;;;6.68;3.40;;;;;;;9.24;82.74;101363.16;5027530;28;20157;-72
2022/04/25 09:53:03;;;;;;;4.65;2.78;;;;;;;9.23;83.91;101357.94;5051024;28;20045;-72
2022/04/25 09:55:31;;;;;;;5.93;2.90;;;;;;;9.26;83.80;101357.81;5047536;28;20046;-71
2022/04/25 09:57:57;;;;;;;3.75;2.60;;;;;;;9.28;83.26;101363.94;5051775;28;20048;-71
2022/04/25 10:00:30;;;;;;;4.03;2.75;;;;;;;9.34;83.77;101354.94;5026774;28;20055;-71
2022/04/25 10:02:57;;;;;;;5.10;2.67;;;;;;;9.44;84.13;101366.06;5051963;28;20039;-71
2022/04/25 10:05:22;;;;;;;5.60;3.10;;;;;;;9.40;83.38;101375.00;5048914;28;20032;-71
2022/04/25 10:07:53;;;;;;;3.35;2.50;;;;;;;9.34;82.89;101376.97;5050026;28;20463;-74
2022/04/25 10:10:18;;;;;;;4.30;2.97;;;;;;;9.36;83.49;101374.25;5046296;28;20472;-73
2022/04/25 10:12:44;;;;;;;4.68;2.88;;;;;;;9.42;84.24;101375.84;5050588;28;20041;-75
2022/04/25 10:15:10;;;;;;;6.15;2.78;;;;;;;9.44;83.82;101377.53;5042738;28;20040;-80
2022/04/25 10:17:39;;;;;;;4.13;2.65;;;;;;;9.46;84.23;101374.81;5040303;28;21654;-75
2022/04/25 10:20:06;;;;;;;5.15;2.47;;;;;;;9.46;83.69;101377.47;5052518;28;20393;-73
2022/04/25 10:22:34;;;;;;;4.13;2.53;;;;;;;9.41;83.72;101377.59;5052915;28;20031;-73
2022/04/25 10:24:59;;;;;;;4.55;2.65;;;;;;;9.40;84.01;101380.28;5052404;28;20037;-74
2022/04/25 10:27:28;;;;;;;5.43;2.75;;;;;;;9.44;84.45;101376.66;5055732;28;20051;-73
2022/04/25 10:29:56;;;;;;;5.40;2.80;;;;;;;9.44;84.05;101379.28;5052190;28;20040;-72
2022/04/25 10:32:23;;;;;;;4.68;2.65;;;;;;;9.48;84.51;101384.44;5050760;28;20374;-73
2022/04/25 10:35:04;;;;;;;5.10;2.38;;;;;;;9.51;84.34;101375.53;5050207;28;20041;-73
2022/04/25 10:37:34;;;;;;;3.47;2.38;;;;;;;9.54;84.16;101375.44;5052016;28;20048;-72
2022/04/25 10:40:04;;;;;;;5.10;2.38;;;;;;;9.60;84.28;101377.88;5033724;28;20429;-76
2022/04/25 10:45:15;;;;;;;4.75;2.42;;;;;;;9.72;84.13;101375.75;5051972;28;20593;-73
2022/04/25 10:47:57;;;;;;;4.57;2.45;;;;;;;9.87;83.80;101387.59;5051806;28;20070;-75
2022/04/25 10:50:23;;;;;;;4.60;2.22;;;;;;;10.07;83.86;101380.75;5053059;28;20044;-72
2022/04/25 10:52:56;;;;;;;3.83;2.40;;;;;;;10.22;82.66;101384.63;5054255;28;20089;-73
2022/04/25 10:55:30;;;;;;;3.45;2.15;;;;;;;10.42;82.09;101382.16;5052790;28;20036;-72
2022/04/25 10:58:02;;;;;;;2.47;1.80;;;;;;;10.58;81.77;101381.63;5053812;28;20034;-74
2022/04/25 11:00:37;;;;;;;5.80;2.50;;;;;;;10.68;81.61;101390.94;5054210;28;20194;-72
2022/04/25 11:03:07;;;;;;;2.67;2.15;;;;;;;10.71;79.96;101392.63;5035455;28;20351;-73
2022/04/25 11:05:40;;;;;;;3.28;2.15;;;;;;;10.67;79.31;101385.72;5072681;28;20039;-74
2022/04/25 11:08:18;;;;;;;3.40;1.85;;;;;;;10.63;80.32;101395.56;5050705;28;20028;-74
2022/04/25 11:10:48;;;;;;;3.95;2.70;;;;;;;10.66;81.37;101386.63;5050417;28;20044;-72
2022/04/25 11:13:15;;;;;;;4.15;2.40;;;;;;;10.71;81.63;101390.84;5054538;28;20509;-72
2022/04/25 11:15:45;;;;;;;3.30;2.30;;;;;;;10.79;80.98;101395.00;5034767;28;20479;-74
2022/04/25 11:18:35;;;;;;;3.97;2.20;;;;;;;10.80;79.96;101391.41;5052512;28;20033;-74
2022/04/25 11:21:17;;;;;;;3.42;2.17;;;;;;;10.81;80.14;101393.13;5035616;28;20484;-74
2022/04/25 11:23:50;;;;;;;3.97;2.22;;;;;;;10.86;80.45;101396.47;5052797;28;20118;-74
2022/04/25 11:26:21;;;;;;;;;;;;;;;10.89;79.97;101396.34;5052526;28;20483;-73
2022/04/25 11:31:23;;;;;;;3.10;2.42;;;;;;;10.78;79.90;101393.25;5053542;28;20028;-72
2022/04/25 11:33:51;;;;;;;6.10;2.50;;;;;;;10.83;79.92;101392.16;5052284;28;20558;-72
2022/04/25 11:36:18;;;;;;;4.72;2.40;;;;;;;10.87;80.19;101392.91;5068627;28;20037;-72
2022/04/25 11:41:31;;;;;;;3.70;2.30;;;;;;;10.97;80.35;101394.28;5053066;28;20025;-73
2022/04/25 11:43:57;;;;;;;4.68;2.70;;;;;;;11.03;79.23;101395.84;5053416;28;20038;-73
2022/04/25 11:46:25;;;;;;;3.60;2.08;;;;;;;11.06;78.68;101397.50;5054262;28;20502;-72
2022/04/25 11:48:51;;;;;;;1.88;1.63;;;;;;;11.20;79.12;101391.66;5049265;28;20127;-73
2022/04/25 11:51:33;;;;;;;3.58;2.38;;;;;;;11.33;77.82;101392.91;5065440;28;20047;-73
2022/04/25 11:54:03;;;;;;;6.28;2.15;;;;;;;11.48;77.92;101404.69;5047709;28;20032;-72
2022/04/25 11:56:29;;;;;;;4.28;2.05;;;;;;;11.54;77.63;101398.25;5061964;28;20749;-73
2022/04/25 11:58:56;;;;;;;3.42;2.38;;;;;;;11.52;76.81;101414.25;5052067;28;20035;-72
2022/04/25 12:01:36;;;;;;;2.65;2.10;;;;;;;11.57;76.50;101413.19;5053096;28;20255;-72
2022/04/25 12:04:21;;;;;;;4.85;2.10;;;;;;;11.57;76.85;101414.06;5051179;28;20115;-71